createdAt,value
2023-01-07T00:00:03.773Z,3.10
2023-01-07T00:02:32.900Z,2.78
2023-01-07T00:05:00.760Z,3.15
2023-01-07T00:07:28.577Z,2.53
2023-01-07T00:09:56.222Z,2.97
2023-01-07T00:12:23.874Z,3.10
2023-01-07T00:14:51.669Z,2.63
2023-01-07T00:17:19.340Z,3.00
2023-01-07T00:19:48.364Z,2.70
2023-01-07T00:22:15.993Z,2.78
2023-01-07T00:24:52.345Z,3.03
2023-01-07T00:27:20.061Z,3.33
2023-01-07T00:29:47.792Z,3.05
2023-01-07T00:32:15.469Z,2.65
2023-01-07T00:34:43.119Z,3.00
2023-01-07T00:37:35.251Z,3.33
2023-01-07T00:40:02.972Z,3.40
2023-01-07T00:42:48.144Z,3.80
2023-01-07T00:45:15.766Z,3.47
2023-01-07T00:47:43.666Z,3.05
2023-01-07T00:50:11.329Z,3.33
2023-01-07T00:52:40.359Z,3.90
2023-01-07T00:55:11.061Z,3.65
2023-01-07T00:57:38.715Z,3.50
2023-01-07T01:00:06.888Z,4.07
2023-01-07T01:02:34.669Z,3.53
2023-01-07T01:05:02.594Z,3.70
2023-01-07T01:07:30.446Z,3.53
2023-01-07T01:09:59.604Z,3.05
2023-01-07T01:12:27.249Z,3.53
2023-01-07T01:14:55.048Z,3.90
2023-01-07T01:17:22.809Z,3.95
2023-01-07T01:19:50.659Z,3.47
2023-01-07T01:22:18.390Z,3.97
2023-01-07T01:24:46.059Z,3.28
2023-01-07T01:27:15.071Z,3.15
2023-01-07T01:29:42.768Z,3.83
2023-01-07T01:32:10.478Z,3.58
2023-01-07T01:34:38.128Z,3.25
2023-01-07T01:37:05.802Z,2.78
2023-01-07T01:39:33.578Z,3.60
2023-01-07T01:42:01.520Z,3.50
2023-01-07T01:44:41.331Z,4.25
2023-01-07T01:47:14.592Z,3.05
2023-01-07T01:49:43.718Z,3.17
2023-01-07T01:52:13.417Z,3.70
2023-01-07T01:54:42.643Z,3.83
2023-01-07T01:57:10.909Z,3.63
2023-01-07T01:59:41.099Z,3.05
2023-01-07T02:02:09.870Z,3.72
2023-01-07T02:04:37.952Z,2.90
2023-01-07T02:07:07.059Z,3.38
2023-01-07T02:09:34.973Z,3.47
2023-01-07T02:12:09.888Z,3.50
2023-01-07T02:14:47.468Z,2.75
2023-01-07T02:17:20.362Z,3.30
2023-01-07T02:20:06.617Z,3.85
2023-01-07T02:22:42.456Z,3.55
2023-01-07T02:25:20.492Z,3.40
2023-01-07T02:28:02.934Z,3.95
2023-01-07T02:30:51.820Z,3.25
2023-01-07T02:33:24.855Z,3.58
2023-01-07T02:36:02.061Z,2.83
2023-01-07T02:38:34.506Z,3.60
2023-01-07T02:41:06.225Z,4.03
2023-01-07T02:43:38.469Z,3.83
2023-01-07T02:46:10.526Z,3.15
2023-01-07T02:48:40.319Z,3.55
2023-01-07T02:51:07.965Z,3.72
2023-01-07T02:53:35.655Z,3.42
2023-01-07T02:56:13.637Z,4.38
2023-01-07T02:58:53.343Z,2.47
2023-01-07T03:01:36.349Z,3.70
2023-01-07T03:04:12.619Z,3.65
2023-01-07T03:06:47.481Z,3.25
2023-01-07T03:09:19.584Z,2.88
2023-01-07T03:11:50.774Z,3.38
2023-01-07T03:14:20.338Z,2.63
2023-01-07T03:16:51.330Z,2.92
2023-01-07T03:19:23.942Z,2.40
2023-01-07T03:21:53.092Z,2.55
2023-01-07T03:24:22.299Z,2.83
2023-01-07T03:26:51.746Z,2.80
2023-01-07T03:29:20.056Z,2.58
2023-01-07T03:31:52.368Z,2.90
2023-01-07T03:34:23.781Z,2.40
2023-01-07T03:36:53.841Z,2.75
2023-01-07T03:39:23.867Z,2.30
2023-01-07T03:42:09.088Z,2.72
2023-01-07T03:44:36.864Z,2.25
2023-01-07T03:47:04.560Z,2.25
2023-01-07T03:49:34.556Z,2.50
2023-01-07T03:52:02.330Z,1.90
2023-01-07T03:54:29.949Z,1.83
2023-01-07T03:56:57.614Z,2.10
2023-01-07T03:59:25.311Z,2.08
2023-01-07T04:01:53.061Z,1.55
2023-01-07T04:04:23.570Z,1.58
2023-01-07T04:06:54.837Z,1.88
2023-01-07T04:09:22.668Z,1.90
2023-01-07T04:11:50.400Z,1.65
2023-01-07T04:14:18.065Z,2.00
2023-01-07T04:16:45.779Z,1.67
2023-01-07T04:19:13.489Z,1.98
2023-01-07T04:21:41.138Z,1.70
2023-01-07T04:24:12.612Z,1.70
2023-01-07T04:26:40.356Z,1.85
2023-01-07T04:29:08.011Z,1.63
2023-01-07T04:31:35.667Z,1.52
2023-01-07T04:34:03.358Z,2.55
2023-01-07T04:36:31.108Z,1.65
2023-01-07T04:38:58.750Z,1.50
2023-01-07T04:41:27.977Z,1.80
2023-01-07T04:43:55.806Z,1.55
2023-01-07T04:46:24.564Z,1.25
2023-01-07T04:48:52.307Z,1.45
2023-01-07T04:51:20.373Z,1.50
2023-01-07T04:53:48.214Z,1.30
2023-01-07T04:56:15.872Z,1.38
2023-01-07T04:58:44.964Z,1.58
2023-01-07T05:01:12.715Z,0.95
2023-01-07T05:03:42.281Z,1.40
2023-01-07T05:06:10.511Z,1.00
2023-01-07T05:08:38.199Z,1.70
2023-01-07T05:11:06.036Z,1.20
2023-01-07T05:13:35.330Z,0.93
2023-01-07T05:16:04.685Z,1.30
2023-01-07T05:18:32.685Z,1.33
2023-01-07T05:21:00.362Z,0.98
2023-01-07T05:23:27.986Z,1.33
2023-01-07T05:25:55.816Z,1.13
2023-01-07T05:28:23.442Z,1.00
2023-01-07T05:30:51.117Z,1.38
2023-01-07T05:33:20.145Z,0.88
2023-01-07T05:35:48.698Z,1.13
2023-01-07T05:38:16.364Z,0.85
2023-01-07T05:40:44.038Z,0.80
2023-01-07T05:43:11.757Z,0.80
2023-01-07T05:45:39.554Z,1.00
2023-01-07T05:48:07.452Z,1.20
2023-01-07T05:50:36.439Z,1.02
2023-01-07T05:53:04.175Z,1.50
2023-01-07T05:55:31.864Z,1.02
2023-01-07T05:57:59.510Z,1.42
2023-01-07T06:00:27.163Z,0.90
2023-01-07T06:02:54.815Z,1.30
2023-01-07T06:05:22.583Z,0.95
2023-01-07T06:07:51.601Z,1.48
2023-01-07T06:10:19.301Z,1.30
2023-01-07T06:12:46.927Z,1.17
2023-01-07T06:15:14.663Z,1.13
2023-01-07T06:17:42.806Z,1.08
2023-01-07T06:20:11.222Z,1.20
2023-01-07T06:22:40.092Z,1.05
2023-01-07T06:25:09.802Z,0.70
2023-01-07T06:27:37.535Z,1.25
2023-01-07T06:30:05.453Z,0.73
2023-01-07T06:32:33.154Z,0.52
2023-01-07T06:35:00.881Z,1.17
2023-01-07T06:37:28.541Z,0.77
2023-01-07T06:39:56.200Z,1.13
2023-01-07T06:42:25.590Z,0.98
2023-01-07T06:44:53.288Z,0.88
2023-01-07T06:47:20.967Z,0.90
2023-01-07T06:49:48.619Z,1.10
2023-01-07T06:52:16.279Z,1.13
2023-01-07T06:54:43.939Z,1.25
2023-01-07T06:57:11.606Z,1.50
2023-01-07T06:59:40.614Z,1.20
2023-01-07T07:02:08.408Z,0.88
2023-01-07T07:04:36.196Z,1.17
2023-01-07T07:07:03.898Z,1.33
2023-01-07T07:09:31.552Z,0.93
2023-01-07T07:11:59.171Z,1.13
2023-01-07T07:14:26.983Z,0.98
2023-01-07T07:16:56.015Z,1.05
2023-01-07T07:19:23.744Z,0.90
2023-01-07T07:21:51.563Z,0.55
2023-01-07T07:24:19.201Z,0.90
2023-01-07T07:26:46.910Z,1.08
2023-01-07T07:29:14.923Z,1.13
2023-01-07T07:31:42.788Z,1.75
2023-01-07T07:34:11.929Z,1.20
2023-01-07T07:36:39.565Z,0.82
2023-01-07T07:39:07.357Z,0.77
2023-01-07T07:41:34.999Z,0.70
2023-01-07T07:44:02.620Z,0.98
2023-01-07T07:46:30.997Z,0.70
2023-01-07T07:48:58.832Z,0.85
2023-01-07T07:51:27.895Z,0.77
2023-01-07T07:53:55.654Z,0.90
2023-01-07T07:56:23.323Z,1.35
2023-01-07T07:58:50.970Z,0.90
2023-01-07T08:01:19.635Z,1.27
2023-01-07T08:03:48.542Z,0.90
2023-01-07T08:06:16.446Z,1.15
2023-01-07T08:08:45.463Z,0.45
2023-01-07T08:11:13.199Z,0.90
2023-01-07T08:13:41.003Z,0.60
2023-01-07T08:16:08.994Z,0.63
2023-01-07T08:18:36.885Z,0.90
2023-01-07T08:21:04.546Z,0.70
2023-01-07T08:23:32.328Z,0.70
2023-01-07T08:26:02.988Z,0.70
2023-01-07T08:28:30.710Z,1.17
2023-01-07T08:30:58.523Z,1.05
2023-01-07T08:33:27.473Z,0.60
2023-01-07T08:35:55.221Z,0.70
2023-01-07T08:38:24.045Z,0.70
2023-01-07T08:40:51.746Z,0.63
2023-01-07T08:43:20.772Z,0.88
2023-01-07T08:45:49.689Z,0.57
2023-01-07T08:48:17.359Z,0.93
2023-01-07T08:50:45.028Z,0.73
2023-01-07T08:53:12.728Z,0.85
2023-01-07T08:55:40.357Z,1.00
2023-01-07T08:58:08.036Z,0.90
2023-01-07T09:00:37.134Z,0.98
2023-01-07T09:03:05.065Z,1.02
2023-01-07T09:05:35.200Z,0.77
2023-01-07T09:08:03.896Z,1.35
2023-01-07T09:10:31.654Z,1.08
2023-01-07T09:12:59.347Z,1.23
2023-01-07T09:15:27.047Z,0.77
2023-01-07T09:17:56.265Z,1.02
2023-01-07T09:20:24.029Z,1.08
2023-01-07T09:22:51.812Z,0.95
2023-01-07T09:25:19.448Z,0.90
2023-01-07T09:27:47.684Z,1.13
2023-01-07T09:30:15.356Z,1.02
2023-01-07T09:32:43.354Z,1.08
2023-01-07T09:35:13.812Z,0.80
2023-01-07T09:37:41.728Z,0.90
2023-01-07T09:40:15.551Z,1.33
2023-01-07T09:42:49.574Z,0.80
2023-01-07T09:45:19.121Z,1.23
2023-01-07T09:47:48.078Z,1.42
2023-01-07T09:50:20.159Z,1.23
2023-01-07T09:52:51.702Z,1.40
2023-01-07T09:55:22.179Z,1.30
2023-01-07T09:57:50.007Z,1.20
2023-01-07T10:00:18.626Z,0.95
2023-01-07T10:02:50.371Z,1.27
2023-01-07T10:05:30.635Z,0.95
2023-01-07T10:08:29.487Z,1.60
2023-01-07T10:10:52.170Z,1.10
2023-01-07T10:13:42.797Z,1.02
2023-01-07T10:16:14.882Z,1.30
2023-01-07T10:18:48.428Z,1.23
2023-01-07T10:21:21.213Z,1.25
2023-01-07T10:23:51.182Z,1.00
2023-01-07T10:26:31.628Z,0.75
2023-01-07T10:29:06.222Z,1.13
2023-01-07T10:31:34.273Z,1.10
2023-01-07T10:34:02.080Z,1.13
2023-01-07T10:36:32.734Z,1.02
2023-01-07T10:39:03.643Z,1.27
2023-01-07T10:41:34.367Z,1.50
2023-01-07T10:44:06.846Z,1.00
2023-01-07T10:46:42.151Z,0.90
2023-01-07T10:51:46.269Z,1.02
2023-01-07T10:54:19.297Z,1.30
2023-01-07T10:56:48.912Z,1.20
2023-01-07T10:59:18.406Z,0.85
2023-01-07T11:01:48.239Z,1.02
2023-01-07T11:04:16.593Z,1.45
2023-01-07T11:06:48.828Z,1.23
2023-01-07T11:09:19.533Z,0.98
2023-01-07T11:11:48.079Z,1.02
2023-01-07T11:14:20.738Z,0.90
2023-01-07T11:16:51.246Z,0.90
2023-01-07T11:19:21.948Z,1.10
2023-01-07T11:21:52.280Z,1.00
2023-01-07T11:24:26.036Z,1.10
2023-01-07T11:26:53.960Z,0.95
2023-01-07T11:29:24.840Z,1.27
2023-01-07T11:31:53.476Z,1.15
2023-01-07T11:34:25.279Z,0.90
2023-01-07T11:36:54.468Z,0.90
2023-01-07T11:39:23.170Z,1.05
2023-01-07T11:41:55.665Z,0.85
2023-01-07T11:44:23.648Z,1.05
2023-01-07T11:46:51.633Z,0.93
2023-01-07T11:49:23.917Z,1.23
2023-01-07T11:51:51.614Z,1.20
2023-01-07T11:54:22.887Z,1.15
2023-01-07T11:56:50.795Z,0.80
2023-01-07T11:59:29.259Z,0.80
2023-01-07T12:01:58.989Z,0.93
2023-01-07T12:04:27.482Z,0.70
2023-01-07T12:06:56.090Z,0.75
2023-01-07T12:09:27.150Z,1.05
2023-01-07T12:11:56.048Z,1.08
2023-01-07T12:14:27.996Z,1.02
2023-01-07T12:16:57.925Z,1.20
2023-01-07T12:19:33.193Z,0.90
2023-01-07T12:24:43.330Z,1.35
2023-01-07T12:27:19.219Z,1.13
2023-01-07T12:29:56.511Z,1.00
2023-01-07T12:32:29.894Z,1.02
2023-01-07T12:35:15.103Z,1.10
2023-01-07T12:40:20.195Z,1.33
2023-01-07T12:42:51.133Z,1.08
2023-01-07T12:45:21.820Z,1.02
2023-01-07T12:47:51.871Z,1.50
2023-01-07T12:50:22.581Z,1.08
2023-01-07T12:52:52.087Z,0.98
2023-01-07T12:55:21.867Z,1.83
2023-01-07T12:57:56.260Z,0.73
2023-01-07T13:00:26.179Z,1.40
2023-01-07T13:02:57.297Z,1.00
2023-01-07T13:05:26.378Z,0.85
2023-01-07T13:07:56.848Z,1.05
2023-01-07T13:10:26.271Z,0.90
2023-01-07T13:12:56.876Z,0.82
2023-01-07T13:15:27.028Z,1.63
2023-01-07T13:17:55.522Z,1.25
2023-01-07T13:20:34.132Z,0.85
2023-01-07T13:23:03.059Z,1.02
2023-01-07T13:25:36.075Z,1.02
2023-01-07T13:28:21.439Z,1.58
2023-01-07T13:30:59.503Z,1.00
2023-01-07T13:33:28.769Z,1.45
2023-01-07T13:36:05.261Z,1.02
2023-01-07T13:38:45.718Z,1.10
2023-01-07T13:41:24.345Z,1.10
2023-01-07T13:44:04.000Z,1.00
2023-01-07T13:46:34.251Z,1.25
2023-01-07T13:49:02.259Z,1.40
2023-01-07T13:51:31.100Z,1.20
2023-01-07T13:53:58.830Z,1.33
2023-01-07T13:56:30.934Z,1.40
2023-01-07T13:59:01.197Z,1.20
2023-01-07T14:01:29.730Z,1.30
2023-01-07T14:04:02.488Z,1.38
2023-01-07T14:06:39.989Z,1.08
2023-01-07T14:09:34.445Z,1.45
2023-01-07T14:12:21.032Z,1.40
2023-01-07T14:14:53.773Z,0.98
2023-01-07T14:17:25.107Z,1.30
2023-01-07T14:19:59.658Z,1.15
2023-01-07T14:22:30.611Z,0.93
2023-01-07T14:25:03.462Z,1.40
2023-01-07T14:27:51.771Z,1.48
2023-01-07T14:30:21.739Z,1.52
2023-01-07T14:32:56.866Z,1.48
2023-01-07T14:35:28.170Z,1.50
2023-01-07T14:37:55.936Z,1.45
2023-01-07T14:40:56.744Z,1.48
2023-01-07T14:43:43.321Z,1.65
2023-01-07T14:46:12.439Z,1.00
2023-01-07T14:48:41.316Z,1.23
2023-01-07T14:51:20.622Z,1.60
2023-01-07T14:54:01.335Z,1.50
2023-01-07T14:56:35.803Z,1.33
2023-01-07T14:59:16.695Z,1.57
2023-01-07T15:01:51.504Z,1.30
2023-01-07T15:04:37.524Z,1.58
2023-01-07T15:07:14.882Z,1.35
2023-01-07T15:10:01.802Z,1.42
2023-01-07T15:12:48.567Z,1.35
2023-01-07T15:15:37.842Z,1.35
2023-01-07T15:18:07.541Z,1.35
2023-01-07T15:20:43.078Z,1.20
2023-01-07T15:23:14.477Z,1.40
2023-01-07T15:25:47.256Z,1.10
2023-01-07T15:28:19.456Z,1.52
2023-01-07T15:30:54.521Z,1.52
2023-01-07T15:33:30.381Z,1.63
2023-01-07T15:35:58.553Z,1.40
2023-01-07T15:38:29.883Z,1.35
2023-01-07T15:40:58.980Z,1.35
2023-01-07T15:43:27.981Z,2.00
2023-01-07T15:45:59.841Z,1.70
2023-01-07T15:48:27.595Z,2.05
2023-01-07T15:50:55.326Z,1.80
2023-01-07T15:53:23.729Z,1.83
2023-01-07T15:55:54.977Z,2.08
2023-01-07T15:58:24.365Z,2.28
2023-01-07T16:00:53.099Z,1.70
2023-01-07T16:03:21.989Z,1.30
2023-01-07T16:05:49.954Z,1.70
2023-01-07T16:08:18.910Z,1.50
2023-01-07T16:10:59.878Z,2.10
2023-01-07T16:13:27.576Z,1.77
2023-01-07T16:15:55.792Z,2.03
2023-01-07T16:18:23.868Z,2.08
2023-01-07T16:20:53.468Z,1.55
2023-01-07T16:23:22.395Z,1.95
2023-01-07T16:25:51.884Z,3.22
2023-01-07T16:28:22.031Z,1.92
2023-01-07T16:30:51.631Z,1.90
2023-01-07T16:33:21.358Z,1.83
2023-01-07T16:35:50.239Z,1.90
2023-01-07T16:38:20.157Z,2.10
2023-01-07T16:40:48.271Z,2.33
2023-01-07T16:43:33.953Z,2.15
2023-01-07T16:46:18.076Z,1.90
2023-01-07T16:48:45.945Z,2.05
2023-01-07T16:51:31.999Z,2.10
2023-01-07T16:54:21.523Z,2.45
2023-01-07T16:56:49.534Z,2.08
2023-01-07T16:59:18.800Z,2.22
2023-01-07T17:01:46.491Z,2.22
2023-01-07T17:04:18.594Z,2.08
2023-01-07T17:06:46.398Z,2.00
2023-01-07T17:09:21.827Z,3.30
2023-01-07T17:14:37.078Z,2.25
2023-01-07T17:17:09.133Z,2.42
2023-01-07T17:19:39.712Z,2.58
2023-01-07T17:22:28.309Z,2.42
2023-01-07T17:25:00.710Z,1.95
2023-01-07T17:27:30.209Z,2.20
2023-01-07T17:29:58.396Z,2.22
2023-01-07T17:32:27.672Z,2.10
2023-01-07T17:34:56.161Z,2.20
2023-01-07T17:37:23.837Z,2.45
2023-01-07T17:39:51.629Z,2.75
2023-01-07T17:42:40.546Z,3.05
2023-01-07T17:45:09.066Z,3.15
2023-01-07T17:47:39.887Z,2.95
2023-01-07T17:50:07.953Z,3.47
2023-01-07T17:52:35.744Z,2.75
2023-01-07T17:55:03.509Z,3.30
2023-01-07T17:57:31.156Z,3.00
2023-01-07T17:59:59.563Z,3.10
2023-01-07T18:02:30.245Z,2.45
2023-01-07T18:04:59.374Z,2.97
2023-01-07T18:07:27.010Z,3.05
2023-01-07T18:09:54.735Z,2.92
2023-01-07T18:12:30.755Z,3.25
2023-01-07T18:14:58.875Z,2.45
2023-01-07T18:17:26.907Z,2.80
2023-01-07T18:19:54.841Z,2.60
2023-01-07T18:22:25.314Z,3.00
2023-01-07T18:24:53.034Z,2.78
2023-01-07T18:27:20.841Z,2.47
2023-01-07T18:29:48.468Z,2.72
2023-01-07T18:32:16.230Z,2.58
2023-01-07T18:34:43.930Z,3.42
2023-01-07T18:37:11.598Z,2.55
2023-01-07T18:39:40.853Z,2.78
2023-01-07T18:42:08.517Z,2.75
2023-01-07T18:44:36.236Z,3.20
2023-01-07T18:47:03.903Z,3.70
2023-01-07T18:49:31.760Z,3.05
2023-01-07T18:51:59.413Z,3.13
2023-01-07T18:54:27.100Z,2.92
2023-01-07T18:56:56.139Z,2.63
2023-01-07T18:59:23.984Z,3.40
2023-01-07T19:01:53.207Z,3.25
2023-01-07T19:04:23.456Z,2.67
2023-01-07T19:06:51.263Z,3.53
2023-01-07T19:09:19.138Z,2.63
2023-01-07T19:11:46.976Z,3.70
2023-01-07T19:14:16.364Z,3.30
2023-01-07T19:16:44.209Z,2.95
2023-01-07T19:19:11.931Z,2.83
2023-01-07T19:21:39.653Z,3.33
2023-01-07T19:24:07.750Z,3.22
2023-01-07T19:26:35.368Z,2.65
2023-01-07T19:29:03.400Z,2.50
2023-01-07T19:31:32.535Z,3.40
2023-01-07T19:34:00.241Z,2.80
2023-01-07T19:36:27.897Z,2.70
2023-01-07T19:38:55.767Z,2.42
2023-01-07T19:41:23.685Z,3.63
2023-01-07T19:43:52.204Z,2.50
2023-01-07T19:46:20.248Z,3.05
2023-01-07T19:48:49.361Z,3.25
2023-01-07T19:51:17.102Z,2.85
2023-01-07T19:53:44.906Z,2.80
2023-01-07T19:56:13.410Z,3.55
2023-01-07T19:58:41.868Z,3.42
2023-01-07T20:01:11.817Z,3.42
2023-01-07T20:03:39.760Z,3.20
2023-01-07T20:06:10.813Z,3.55
2023-01-07T20:08:38.762Z,4.25
2023-01-07T20:11:06.770Z,2.95
2023-01-07T20:13:35.252Z,4.57
2023-01-07T20:16:06.699Z,3.72
2023-01-07T20:18:37.914Z,4.15
2023-01-07T20:21:05.900Z,4.93
2023-01-07T20:23:35.934Z,3.80
2023-01-07T20:26:04.805Z,3.70
2023-01-07T20:28:32.546Z,3.08
2023-01-07T20:31:00.251Z,3.80
2023-01-07T20:33:27.907Z,4.00
2023-01-07T20:36:00.587Z,3.58
2023-01-07T20:38:28.261Z,3.50
2023-01-07T20:40:57.374Z,4.05
2023-01-07T20:43:25.430Z,4.00
2023-01-07T20:45:53.194Z,4.13
2023-01-07T20:48:20.902Z,4.00
2023-01-07T20:50:48.541Z,4.28
2023-01-07T20:53:16.293Z,3.83
2023-01-07T20:55:43.953Z,4.15
2023-01-07T20:58:12.969Z,3.63
2023-01-07T21:00:41.955Z,4.47
2023-01-07T21:03:09.739Z,3.85
2023-01-07T21:05:38.605Z,4.70
2023-01-07T21:08:06.394Z,3.75
2023-01-07T21:10:34.345Z,3.60
2023-01-07T21:13:01.994Z,3.97
2023-01-07T21:15:31.209Z,3.65
2023-01-07T21:17:59.069Z,5.13
2023-01-07T21:20:26.761Z,4.55
2023-01-07T21:22:54.528Z,4.47
2023-01-07T21:25:22.147Z,3.17
2023-01-07T21:27:49.855Z,3.22
2023-01-07T21:30:18.150Z,3.65
2023-01-07T21:32:47.598Z,4.32
2023-01-07T21:35:15.342Z,3.15
2023-01-07T21:37:42.991Z,4.13
2023-01-07T21:40:11.021Z,3.50
2023-01-07T21:42:38.688Z,3.80
2023-01-07T21:45:07.100Z,3.20
2023-01-07T21:47:35.891Z,3.47
2023-01-07T21:50:06.192Z,3.20
2023-01-07T21:52:35.169Z,3.00
2023-01-07T21:55:02.804Z,3.15
2023-01-07T21:57:30.484Z,3.55
2023-01-07T21:59:58.177Z,3.30
2023-01-07T22:02:25.918Z,2.88
2023-01-07T22:04:53.602Z,4.10
2023-01-07T22:07:22.606Z,3.33
2023-01-07T22:09:50.279Z,3.63
2023-01-07T22:12:18.024Z,3.67
2023-01-07T22:14:46.369Z,2.65
2023-01-07T22:17:15.063Z,3.25
2023-01-07T22:19:42.804Z,2.97
2023-01-07T22:22:10.486Z,3.15
2023-01-07T22:24:39.506Z,3.55
2023-01-07T22:27:09.009Z,2.70
2023-01-07T22:29:37.381Z,3.08
2023-01-07T22:32:05.453Z,2.97
2023-01-07T22:34:33.330Z,3.00
2023-01-07T22:37:04.737Z,2.58
2023-01-07T22:39:34.187Z,2.47
2023-01-07T22:42:07.342Z,3.13
2023-01-07T22:44:38.451Z,2.70
2023-01-07T22:47:06.573Z,2.97
2023-01-07T22:49:35.077Z,2.97
2023-01-07T22:52:02.816Z,3.28
2023-01-07T22:54:31.987Z,3.40
2023-01-07T22:56:59.660Z,2.70
2023-01-07T22:59:28.675Z,3.45
2023-01-07T23:01:56.308Z,3.55
2023-01-07T23:04:24.045Z,3.50
2023-01-07T23:06:51.826Z,3.42
2023-01-07T23:09:19.614Z,2.88
2023-01-07T23:11:50.735Z,3.33
2023-01-07T23:14:19.952Z,3.55
2023-01-07T23:16:49.066Z,3.50
2023-01-07T23:19:16.805Z,2.85
2023-01-07T23:21:45.443Z,3.33
2023-01-07T23:24:13.682Z,3.00
2023-01-07T23:26:41.431Z,3.72
2023-01-07T23:29:09.254Z,3.03
2023-01-07T23:31:37.464Z,2.95
2023-01-07T23:34:06.755Z,2.05
2023-01-07T23:36:36.435Z,2.53
2023-01-07T23:39:04.339Z,2.70
2023-01-07T23:41:32.386Z,1.98
2023-01-07T23:44:00.098Z,2.08
2023-01-07T23:46:27.917Z,1.27
2023-01-07T23:48:55.628Z,1.45
2023-01-07T23:51:24.715Z,0.80
2023-01-07T23:53:52.765Z,0.90
2023-01-07T23:56:21.071Z,0.77
2023-01-07T23:58:49.426Z,0.60
